Time;durP1;ratioP1;P1;durP2;ratioP2;P2;SDS_P1;SDS_P2;PMS_P1;PMS_P2;Temp;Humidity;BMP_temperature;BMP_pressure;BME280_temperature;BME280_humidity;BME280_pressure;Samples;Min_cycle;Max_cycle;Signal;HPM_P1;HPM_P2
2022/07/03 00:01:29;;;;;;;6.28;3.65;;;;;;;;;;5125190;27;20485;-78
2022/07/03 00:03:58;;;;;;;6.20;4.07;;;;;;;;;;5091268;28;20399;-78
2022/07/03 00:06:26;;;;;;;6.28;4.00;;;18.30;99.90;;;;;;5074233;28;20966;-78
2022/07/03 00:08:52;;;;;;;5.65;3.88;;;;;;;;;;5107985;28;20405;-78
2022/07/03 00:11:18;;;;;;;6.00;3.83;;;18.50;99.90;;;;;;5090861;28;20456;-78
2022/07/03 00:13:43;;;;;;;6.97;3.90;;;18.30;99.90;;;;;;5125039;27;20406;-78
2022/07/03 00:16:09;;;;;;;7.17;3.70;;;;;;;;;;5073999;28;20471;-78
2022/07/03 00:18:35;;;;;;;6.70;3.67;;;18.20;99.90;;;;;;5074188;28;20406;-78
2022/07/03 00:21:04;;;;;;;5.57;3.53;;;18.40;99.90;;;;;;5091213;28;20408;-78
2022/07/03 00:23:36;;;;;;;5.50;3.55;;;18.40;99.90;;;;;;5107744;28;20406;-78
2022/07/03 00:26:04;;;;;;;5.72;3.53;;;18.30;99.90;;;;;;5124965;27;20997;-78
2022/07/03 00:28:31;;;;;;;6.88;3.72;;;18.30;99.90;;;;;;5124656;27;20404;-78
2022/07/03 00:30:58;;;;;;;5.95;3.63;;;;;;;;;;5074050;28;20485;-78
2022/07/03 00:33:27;;;;;;;4.87;3.40;;;18.40;99.90;;;;;;5090893;28;20808;-78
2022/07/03 00:35:55;;;;;;;5.43;3.55;;;18.40;99.90;;;;;;5090882;28;20422;-78
2022/07/03 00:38:22;;;;;;;4.65;3.30;;;18.30;99.90;;;;;;5107814;28;20405;-78
2022/07/03 00:40:48;;;;;;;5.93;4.10;;;18.30;99.90;;;;;;5073950;28;20898;-78
2022/07/03 00:43:19;;;;;;;5.90;3.75;;;18.20;99.90;;;;;;5090947;28;20394;-78
2022/07/03 00:45:48;;;;;;;4.05;3.50;;;18.20;99.90;;;;;;5090781;28;20433;-78
2022/07/03 00:48:15;;;;;;;4.53;3.60;;;18.00;99.90;;;;;;5090488;28;20398;-78
2022/07/03 00:50:46;;;;;;;4.85;3.53;;;17.90;99.90;;;;;;5107408;28;20919;-78
2022/07/03 00:53:13;;;;;;;4.93;3.58;;;;;;;;;;5107430;28;20404;-78
2022/07/03 00:55:42;;;;;;;5.20;3.35;;;17.50;99.90;;;;;;5124508;28;20429;-78
2022/07/03 00:58:09;;;;;;;5.78;3.65;;;;;;;;;;5090334;28;20430;-78
2022/07/03 01:00:42;;;;;;;4.70;3.50;;;17.80;99.90;;;;;;5124735;28;20746;-78
2022/07/03 01:03:16;;;;;;;6.15;3.60;;;17.80;99.90;;;;;;5109311;28;20484;-78
2022/07/03 01:05:51;;;;;;;6.05;3.50;;;17.50;99.90;;;;;;5094530;28;20447;-78
2022/07/03 01:08:26;;;;;;;4.97;3.20;;;;;;;;;;5094251;28;20406;-78
2022/07/03 01:11:16;;;;;;;6.57;3.20;;;17.70;99.90;;;;;;5077584;28;20402;-78
2022/07/03 01:13:48;;;;;;;5.57;3.90;;;;;;;;;;5077231;28;20414;-78
2022/07/03 01:16:29;;;;;;;6.00;3.55;;;17.60;99.90;;;;;;5077356;28;20422;-78
2022/07/03 01:19:00;;;;;;;8.27;3.30;;;;;;;;;;5128439;27;20440;-78
2022/07/03 01:21:35;;;;;;;4.85;3.17;;;17.60;99.90;;;;;;5077484;28;20394;-78
2022/07/03 01:24:19;;;;;;;4.90;3.50;;;17.60;99.90;;;;;;5128309;27;20420;-78
2022/07/03 01:26:47;;;;;;;6.00;3.30;;;;;;;;;;5128197;27;20454;-78
2022/07/03 01:29:52;;;;;;;9.88;3.70;;;17.50;99.90;;;;;;5077145;28;20451;-78
2022/07/03 01:32:22;;;;;;;4.82;3.03;;;17.60;99.90;;;;;;5062339;28;20402;-78
2022/07/03 01:34:52;;;;;;;6.05;3.60;;;17.40;99.90;;;;;;5093904;28;20480;-78
2022/07/03 01:37:20;;;;;;;4.95;3.40;;;;;;;;;;5094035;28;20398;-78
2022/07/03 01:39:51;;;;;;;5.85;3.42;;;17.30;99.90;;;;;;5076952;28;20398;-78
2022/07/03 01:42:19;;;;;;;5.32;3.40;;;17.20;99.90;;;;;;5110880;28;20394;-78
2022/07/03 01:44:45;;;;;;;5.65;3.95;;;;;;;;;;5093694;28;20409;-78
2022/07/03 01:47:13;;;;;;;7.85;4.40;;;17.10;99.90;;;;;;5076999;28;20405;-78
2022/07/03 01:49:41;;;;;;;5.47;4.28;;;16.70;99.90;;;;;;5076622;28;20402;-78
2022/07/03 01:52:10;;;;;;;6.78;4.45;;;17.10;99.90;;;;;;5093774;28;20501;-78
2022/07/03 01:54:38;;;;;;;6.90;4.80;;;16.90;99.90;;;;;;5127623;27;20505;-78
2022/07/03 01:57:06;;;;;;;8.73;4.43;;;16.90;99.90;;;;;;5110453;28;20394;-78
2022/07/03 01:59:32;;;;;;;6.55;4.50;;;;;;;;;;5110466;28;20394;-78
2022/07/03 02:02:28;;;;;;;6.18;4.95;;;16.70;99.90;;;;;;5127514;27;20477;-78
2022/07/03 02:05:05;;;;;;;5.53;4.78;;;16.30;99.90;;;;;;5110304;28;20402;-78
2022/07/03 02:07:56;;;;;;;6.53;4.85;;;16.50;99.90;;;;;;5127496;27;20488;-78
2022/07/03 02:10:28;;;;;;;7.93;4.80;;;;;;;;;;5093525;28;20397;-78
2022/07/03 02:13:02;;;;;;;7.82;4.88;;;16.70;99.90;;;;;;5076601;28;20401;-78
2022/07/03 02:15:40;;;;;;;6.90;4.88;;;16.70;99.90;;;;;;5092348;28;20472;-78
2022/07/03 02:18:12;;;;;;;9.68;4.70;;;;;;;;;;5127144;27;20881;-78
2022/07/03 02:20:42;;;;;;;7.43;4.97;;;16.70;99.90;;;;;;5076119;28;20398;-78
2022/07/03 02:23:09;;;;;;;5.72;4.43;;;16.90;99.90;;;;;;5076069;28;20405;-78
2022/07/03 02:25:36;;;;;;;7.40;4.70;;;16.70;99.90;;;;;;5127082;27;20489;-78
2022/07/03 02:28:05;;;;;;;9.07;4.93;;;16.70;99.90;;;;;;5093199;28;20719;-78
2022/07/03 02:30:34;;;;;;;6.18;4.60;;;;;;;;;;5127043;27;20402;-78
2022/07/03 02:33:02;;;;;;;6.80;4.78;;;16.60;99.90;;;;;;5093001;28;20401;-78
2022/07/03 02:35:30;;;;;;;8.10;5.15;;;16.70;99.90;;;;;;5109443;28;20511;-78
2022/07/03 02:38:19;;;;;;;7.15;4.72;;;16.90;99.90;;;;;;5092885;28;20836;-78
2022/07/03 02:41:09;;;;;;;6.40;4.93;;;16.80;99.90;;;;;;5110030;28;20481;-78
2022/07/03 02:44:07;;;;;;;8.90;4.90;;;16.70;99.90;;;;;;5109553;28;20406;-78
2022/07/03 02:47:00;;;;;;;9.02;5.30;;;16.70;99.90;;;;;;5126379;27;20956;-78
2022/07/03 02:49:31;;;;;;;8.40;5.20;;;16.60;99.90;;;;;;5109418;28;20426;-78
2022/07/03 02:52:12;;;;;;;6.82;4.72;;;16.60;99.90;;;;;;5126529;27;20402;-78
2022/07/03 02:54:46;;;;;;;7.07;5.15;;;16.30;99.90;;;;;;5126366;27;20421;-78
2022/07/03 02:57:14;;;;;;;7.97;4.90;;;;;;;;;;5092299;28;20398;-78
2022/07/03 02:59:40;;;;;;;7.65;5.10;;;;;;;;;;5126296;27;20402;-78
2022/07/03 03:02:14;;;;;;;8.03;5.00;;;16.40;99.90;;;;;;5075720;28;20568;-78
2022/07/03 03:04:44;;;;;;;9.13;5.57;;;16.60;99.90;;;;;;5126299;27;20912;-78
2022/07/03 03:07:17;;;;;;;8.45;5.45;;;16.40;99.90;;;;;;5109130;28;20398;-78
2022/07/03 03:09:45;;;;;;;6.50;5.00;;;16.50;99.90;;;;;;5092187;28;20398;-78
2022/07/03 03:12:12;;;;;;;7.60;5.43;;;16.40;99.90;;;;;;5092024;28;20485;-78
2022/07/03 03:14:43;;;;;;;7.82;5.50;;;16.70;99.90;;;;;;5126271;27;20426;-78
2022/07/03 03:17:17;;;;;;;7.37;5.43;;;16.60;99.90;;;;;;5092019;28;20394;-78
2022/07/03 03:19:51;;;;;;;8.27;5.63;;;16.60;99.90;;;;;;5092248;28;20730;-78
2022/07/03 03:22:17;;;;;;;8.38;5.40;;;;;;;;;;5091794;28;20398;-78
2022/07/03 03:24:43;;;;;;;9.32;5.82;;;;;;;;;;5075201;28;20754;-78
2022/07/03 03:27:09;;;;;;;7.97;5.40;;;;;;;;;;5074729;28;20402;-78
2022/07/03 03:29:35;;;;;;;8.90;5.60;;;16.70;99.90;;;;;;5074915;28;20398;-78
2022/07/03 03:32:01;;;;;;;9.20;5.78;;;;;;;;;;5126072;27;20401;-78
2022/07/03 03:34:28;;;;;;;6.55;5.68;;;16.50;99.90;;;;;;5074390;28;20444;-78
2022/07/03 03:36:54;;;;;;;7.55;5.90;;;;;;;;;;5074774;28;20409;-78
2022/07/03 03:39:20;;;;;;;9.65;6.22;;;16.50;99.90;;;;;;5108774;27;20437;-78
2022/07/03 03:41:46;;;;;;;7.55;6.25;;;;;;;;;;5125890;27;20433;-78
2022/07/03 03:44:12;;;;;;;7.85;6.50;;;16.40;99.90;;;;;;5074645;28;20409;-78
2022/07/03 03:46:37;;;;;;;10.18;6.43;;;16.40;99.90;;;;;;5108416;27;20468;-78
2022/07/03 03:49:03;;;;;;;9.05;6.70;;;16.30;99.90;;;;;;5091529;28;20404;-77
2022/07/03 03:51:29;;;;;;;9.70;6.90;;;16.20;99.90;;;;;;5108466;27;20404;-78
2022/07/03 03:53:55;;;;;;;8.53;6.37;;;;;;;;;;5074856;28;20438;-78
2022/07/03 03:56:21;;;;;;;8.90;6.47;;;;;;;;;;5091134;28;20421;-78
2022/07/03 03:58:47;;;;;;;9.88;6.00;;;;;;;;;;5091183;28;20410;-78
2022/07/03 04:01:13;;;;;;;8.85;6.13;;;16.30;99.90;;;;;;5091192;28;20402;-78
2022/07/03 04:03:40;;;;;;;8.18;5.75;;;;;;;;;;5108202;28;20398;-78
2022/07/03 04:06:06;;;;;;;6.95;5.80;;;;;;;;;;5074399;28;20402;-78
2022/07/03 04:08:32;;;;;;;7.88;5.78;;;;;;;;;;5074264;28;20439;-78
2022/07/03 04:10:58;;;;;;;7.20;6.00;;;16.70;99.90;;;;;;5091449;28;20799;-78
2022/07/03 04:13:24;;;;;;;8.80;6.40;;;16.40;99.90;;;;;;5107806;28;20449;-78
2022/07/03 04:15:53;;;;;;;9.18;5.85;;;16.50;99.90;;;;;;5057339;28;20469;-78
2022/07/03 04:18:19;;;;;;;8.40;6.03;;;;;;;;;;5090848;28;20487;-78
2022/07/03 04:20:45;;;;;;;9.30;5.97;;;;;;;;;;5073987;28;20477;-78
2022/07/03 04:23:12;;;;;;;9.38;6.10;;;16.30;99.90;;;;;;5090784;28;20409;-78
2022/07/03 04:25:37;;;;;;;10.45;5.90;;;16.30;99.90;;;;;;5073886;28;20471;-78
2022/07/03 04:28:03;;;;;;;8.82;6.00;;;16.30;99.90;;;;;;5074087;28;20402;-78
2022/07/03 04:30:29;;;;;;;9.10;6.88;;;;;;;;;;5107685;28;20409;-78
2022/07/03 04:32:55;;;;;;;14.77;7.55;;;16.20;99.90;;;;;;5073679;28;20402;-78
2022/07/03 04:35:21;;;;;;;10.32;6.90;;;16.10;99.90;;;;;;5124375;27;20421;-78
2022/07/03 04:37:47;;;;;;;8.60;6.68;;;;;;;;;;5124114;27;20413;-78
2022/07/03 04:40:13;;;;;;;8.77;6.70;;;;;;;;;;5073933;28;20393;-78
2022/07/03 04:42:39;;;;;;;13.40;6.97;;;;;;;;;;5090669;28;20785;-78
2022/07/03 04:45:07;;;;;;;8.65;6.93;;;16.90;99.90;;;;;;5090327;28;20500;-78
2022/07/03 04:47:33;;;;;;;9.80;6.47;;;;;;;;;;5124868;27;20402;-78
2022/07/03 04:49:58;;;;;;;9.53;6.30;;;16.90;99.90;;;;;;5090326;28;20518;-78
2022/07/03 04:52:24;;;;;;;12.00;6.50;;;17.10;99.90;;;;;;5090297;28;20485;-78
2022/07/03 04:54:50;;;;;;;9.13;5.90;;;17.10;99.90;;;;;;5090501;28;20491;-78
2022/07/03 04:57:16;;;;;;;9.40;5.88;;;17.20;99.90;;;;;;5073926;28;20405;-78
2022/07/03 04:59:42;;;;;;;6.93;5.50;;;17.20;99.90;;;;;;5124513;28;20750;-78
2022/07/03 05:02:08;;;;;;;7.22;5.22;;;;;;;;;;5124365;28;20403;-78
2022/07/03 05:04:33;;;;;;;8.77;5.30;;;17.10;99.90;;;;;;5090394;28;20398;-78
2022/07/03 05:06:59;;;;;;;6.30;5.00;;;17.50;99.90;;;;;;5124323;28;20398;-78
2022/07/03 05:09:25;;;;;;;7.38;4.95;;;17.60;99.90;;;;;;5107436;28;20402;-78
2022/07/03 05:11:51;;;;;;;7.20;4.10;;;;;;;;;;5107214;28;20390;-78
2022/07/03 05:14:17;;;;;;;6.22;4.18;;;17.90;99.90;;;;;;5073223;28;20405;-78
2022/07/03 05:16:43;;;;;;;7.18;4.07;;;;;;;;;;5073349;28;20458;-78
2022/07/03 05:19:09;;;;;;;6.18;4.30;;;18.20;99.90;;;;;;5090148;28;20536;-78
2022/07/03 05:21:34;;;;;;;5.72;4.10;;;17.90;99.90;;;;;;5124266;28;20496;-78
2022/07/03 05:24:00;;;;;;;4.68;4.05;;;18.50;99.90;;;;;;5090256;28;20394;-78
2022/07/03 05:26:26;;;;;;;5.97;3.80;;;;;;;;;;5073107;28;20445;-78
2022/07/03 05:28:52;;;;;;;5.67;3.80;;;;;;;;;;5073492;28;20750;-78
2022/07/03 05:31:18;;;;;;;6.65;3.92;;;18.30;99.90;;;;;;5090214;28;20437;-78
2022/07/03 05:33:43;;;;;;;5.23;4.10;;;18.50;99.90;;;;;;5123855;28;20475;-78
2022/07/03 05:36:09;;;;;;;4.80;3.80;;;18.30;99.90;;;;;;5106873;28;20430;-78
2022/07/03 05:41:19;;;;;;;5.43;4.10;;;;;;;;;;5109661;28;20398;-78
2022/07/03 05:43:45;;;;;;;8.48;4.40;;;18.60;99.90;;;;;;5090252;28;20492;-78
2022/07/03 05:46:11;;;;;;;6.22;4.22;;;;;;;;;;5124111;28;20493;-78
2022/07/03 05:48:37;;;;;;;5.07;3.90;;;18.40;99.90;;;;;;5074063;28;20463;-78
2022/07/03 05:51:03;;;;;;;7.50;3.80;;;18.80;99.90;;;;;;5127954;27;20405;-78
2022/07/03 05:53:29;;;;;;;5.63;3.80;;;;;;;;;;5093626;28;20397;-78
2022/07/03 05:55:55;;;;;;;5.05;3.50;;;19.10;99.90;;;;;;5093381;28;20457;-78
2022/07/03 05:58:21;;;;;;;6.68;3.42;;;18.60;99.90;;;;;;5110779;28;20951;-78
2022/07/03 06:00:46;;;;;;;4.93;3.10;;;18.80;99.90;;;;;;5093584;28;20402;-78
2022/07/03 06:03:12;;;;;;;4.40;2.50;;;19.00;99.90;;;;;;5110632;28;20459;-78
2022/07/03 06:05:38;;;;;;;4.10;2.30;;;;;;;;;;5093723;28;20754;-78
2022/07/03 06:08:05;;;;;;;6.00;2.60;;;18.90;99.90;;;;;;5076843;28;20775;-78
2022/07/03 06:10:31;;;;;;;7.03;2.22;;;19.20;99.90;;;;;;5110613;28;20915;-78
2022/07/03 06:12:57;;;;;;;7.32;2.10;;;19.20;99.90;;;;;;5110281;28;20484;-78
2022/07/03 06:15:23;;;;;;;4.47;1.83;;;19.40;99.90;;;;;;5093277;28;20512;-78
2022/07/03 06:17:49;;;;;;;8.93;2.08;;;19.60;99.90;;;;;;5110272;28;20405;-78
2022/07/03 06:20:15;;;;;;;5.05;2.00;;;19.80;99.90;;;;;;5110452;28;20758;-78
2022/07/03 06:22:41;;;;;;;4.65;1.70;;;19.80;99.90;;;;;;5093264;28;20443;-78
2022/07/03 06:25:08;;;;;;;3.22;1.60;;;20.40;99.90;;;;;;5110147;28;20584;-78
2022/07/03 06:27:34;;;;;;;5.38;1.88;;;20.20;99.90;;;;;;5127142;27;20398;-78
2022/07/03 06:29:59;;;;;;;4.70;1.60;;;20.20;99.90;;;;;;5093033;28;20409;-78
2022/07/03 06:32:25;;;;;;;3.40;1.85;;;20.20;99.90;;;;;;5126993;27;20761;-78
2022/07/03 06:34:52;;;;;;;3.08;1.80;;;19.80;99.90;;;;;;5109649;28;20418;-78
2022/07/03 06:37:17;;;;;;;6.72;2.05;;;19.90;99.90;;;;;;5126894;27;20409;-78
2022/07/03 06:39:43;;;;;;;3.53;1.73;;;20.10;99.90;;;;;;5076054;28;20391;-78
2022/07/03 06:42:09;;;;;;;4.00;2.10;;;20.00;99.90;;;;;;5127216;27;20394;-78
2022/07/03 06:44:34;;;;;;;4.15;1.88;;;19.80;99.90;;;;;;5059322;28;20859;-78
2022/07/03 06:47:03;;;;;;;4.60;2.10;;;19.90;99.90;;;;;;5127194;27;20398;-78
2022/07/03 06:49:31;;;;;;;4.55;2.13;;;20.00;99.90;;;;;;5126888;27;20397;-79
2022/07/03 06:51:57;;;;;;;3.90;1.80;;;20.30;99.90;;;;;;5109757;28;20433;-78
2022/07/03 06:54:22;;;;;;;4.83;1.93;;;20.30;99.90;;;;;;5093026;28;20508;-78
2022/07/03 06:56:48;;;;;;;3.60;1.77;;;19.90;99.90;;;;;;5059265;28;20447;-76
2022/07/03 06:59:14;;;;;;;2.80;1.60;;;;;;;;;;5126864;27;20885;-76
2022/07/03 07:01:40;;;;;;;3.95;1.70;;;19.70;99.90;;;;;;5092035;28;20400;-76
2022/07/03 07:04:05;;;;;;;5.50;1.80;;;19.80;99.90;;;;;;5126296;27;20898;-76
2022/07/03 07:06:31;;;;;;;3.90;1.70;;;19.60;99.90;;;;;;5092478;28;20413;-76
2022/07/03 07:08:57;;;;;;;4.10;2.00;;;19.60;99.90;;;;;;5126563;27;20412;-76
2022/07/03 07:11:23;;;;;;;4.35;2.00;;;19.80;99.90;;;;;;5126260;27;20758;-76
2022/07/03 07:13:49;;;;;;;4.20;1.90;;;;;;;;;;5126188;27;20402;-76
2022/07/03 07:16:14;;;;;;;5.85;2.10;;;19.50;99.90;;;;;;5074937;28;20429;-76
2022/07/03 07:18:41;;;;;;;4.07;1.87;;;19.70;99.90;;;;;;5092050;28;20398;-76
2022/07/03 07:21:07;;;;;;;4.13;2.20;;;19.90;99.90;;;;;;5125958;27;20406;-76
2022/07/03 07:23:33;;;;;;;5.20;2.20;;;;;;;;;;5075021;28;20447;-76
2022/07/03 07:25:59;;;;;;;5.30;1.97;;;20.30;99.90;;;;;;5075090;28;20747;-76
2022/07/03 07:28:25;;;;;;;5.40;2.17;;;20.40;99.90;;;;;;5074774;28;20450;-76
2022/07/03 07:30:53;;;;;;;4.18;1.92;;;20.30;99.90;;;;;;5125690;27;20409;-76
2022/07/03 07:33:19;;;;;;;5.93;1.80;;;20.50;99.90;;;;;;5125665;27;20412;-76
2022/07/03 07:35:45;;;;;;;3.90;1.70;;;20.70;99.90;;;;;;5125290;27;20422;-76
2022/07/03 07:38:11;;;;;;;5.40;2.10;;;20.80;99.90;;;;;;5108375;28;20900;-76
2022/07/03 07:40:37;;;;;;;4.30;1.90;;;20.90;99.90;;;;;;5125434;27;20405;-76
2022/07/03 07:43:02;;;;;;;3.70;1.30;;;21.20;99.90;;;;;;5091393;28;20394;-76
2022/07/03 07:45:28;;;;;;;4.85;1.30;;;21.20;99.90;;;;;;5125562;27;20458;-76
2022/07/03 07:47:54;;;;;;;3.58;1.50;;;21.10;99.90;;;;;;5125324;27;20488;-76
2022/07/03 07:50:19;;;;;;;3.10;1.33;;;21.10;99.90;;;;;;5125391;27;20540;-76
2022/07/03 07:52:45;;;;;;;2.57;1.10;;;21.00;99.90;;;;;;5125598;27;20402;-76
2022/07/03 07:55:11;;;;;;;3.22;1.00;;;21.30;99.90;;;;;;5125323;27;20538;-76
2022/07/03 07:57:40;;;;;;;3.60;1.25;;;21.50;99.90;;;;;;5125430;27;20398;-76
2022/07/03 08:00:11;;;;;;;3.40;1.30;;;21.40;99.90;;;;;;5108386;28;20394;-76
2022/07/03 08:05:37;;;;;;;3.60;1.10;;;21.60;99.90;;;;;;5125028;27;20492;-76
2022/07/03 08:08:16;;;;;;;4.28;1.20;;;22.00;99.90;;;;;;5125296;27;20444;-76
2022/07/03 08:10:49;;;;;;;3.80;1.30;;;21.90;99.90;;;;;;5125116;27;20430;-76
2022/07/03 08:13:18;;;;;;;2.40;1.05;;;21.90;99.90;;;;;;5073018;28;20455;-76
2022/07/03 08:15:44;;;;;;;2.00;1.00;;;22.10;99.90;;;;;;5124785;27;20450;-76
2022/07/03 08:18:10;;;;;;;1.83;0.90;;;22.10;99.90;;;;;;5090824;28;20409;-76
2022/07/03 08:20:37;;;;;;;4.18;1.10;;;22.70;99.90;;;;;;5090764;28;20390;-76
2022/07/03 08:23:03;;;;;;;1.63;0.93;;;22.40;99.90;;;;;;5090619;28;20401;-76
2022/07/03 08:25:32;;;;;;;3.97;1.00;;;22.20;99.90;;;;;;5090908;28;20750;-76
2022/07/03 08:27:58;;;;;;;2.33;1.10;;;22.50;99.90;;;;;;5090633;28;20397;-76
2022/07/03 08:30:24;;;;;;;3.40;1.10;;;22.90;99.90;;;;;;5090536;28;20452;-76
2022/07/03 08:32:54;;;;;;;3.88;1.00;;;23.10;99.90;;;;;;5124729;27;20431;-75
2022/07/03 08:35:19;;;;;;;1.45;0.82;;;23.00;99.90;;;;;;5124329;27;20430;-76
2022/07/03 08:37:47;;;;;;;2.58;0.90;;;22.90;99.90;;;;;;5090513;28;20409;-76
2022/07/03 08:40:14;;;;;;;3.17;1.20;;;23.30;99.90;;;;;;5124347;27;20435;-76
2022/07/03 08:43:03;;;;;;;2.65;1.00;;;23.30;99.90;;;;;;5107481;28;20401;-76
2022/07/03 08:45:29;;;;;;;2.13;0.98;;;23.40;99.90;;;;;;5074286;28;20402;-77
2022/07/03 08:47:58;;;;;;;2.15;0.90;;;23.30;99.90;;;;;;5124534;27;20406;-76
2022/07/03 08:50:24;;;;;;;2.63;1.10;;;23.80;99.90;;;;;;5124413;27;20413;-76
2022/07/03 08:52:50;;;;;;;2.63;1.10;;;23.80;99.90;;;;;;5107213;28;20410;-76
2022/07/03 08:55:16;;;;;;;3.20;0.90;;;23.50;99.90;;;;;;5090149;28;20426;-76
2022/07/03 08:57:44;;;;;;;2.10;1.02;;;23.70;99.90;;;;;;5073574;28;20890;-76
2022/07/03 09:00:20;;;;;;;3.65;1.10;;;23.70;99.90;;;;;;5073486;28;20901;-76
2022/07/03 09:02:49;;;;;;;2.80;1.10;;;23.80;99.90;;;;;;5074738;28;20398;-76
2022/07/03 09:05:16;;;;;;;2.78;1.20;;;24.00;99.90;;;;;;5124136;28;20426;-76
2022/07/03 09:07:44;;;;;;;3.00;1.23;;;24.10;99.90;;;;;;5090155;28;20402;-76
2022/07/03 09:10:12;;;;;;;2.60;1.00;;;24.10;99.90;;;;;;5090182;28;20408;-74
2022/07/03 09:12:38;;;;;;;2.40;1.00;;;24.30;99.90;;;;;;5124447;28;20756;-77
2022/07/03 09:15:06;;;;;;;2.22;1.10;;;24.10;99.90;;;;;;5089890;28;20521;-77
2022/07/03 09:17:32;;;;;;;3.60;1.30;;;24.10;99.90;;;;;;5090049;28;20443;-76
2022/07/03 09:19:59;;;;;;;2.05;0.80;;;23.60;99.90;;;;;;5107299;28;20754;-77
2022/07/03 09:22:28;;;;;;;1.85;1.00;;;23.70;99.90;;;;;;5107025;28;20402;-77
2022/07/03 09:25:02;;;;;;;3.05;1.10;;;23.80;99.90;;;;;;5093524;28;20428;-77
2022/07/03 09:27:28;;;;;;;2.22;0.90;;;23.90;99.90;;;;;;5077077;28;20456;-76
2022/07/03 09:29:59;;;;;;;2.72;1.10;;;23.40;99.90;;;;;;5128090;27;20459;-77
2022/07/03 09:32:26;;;;;;;5.95;1.30;;;23.70;99.90;;;;;;5077282;28;20769;-77
2022/07/03 09:35:14;;;;;;;2.60;1.02;;;23.30;99.90;;;;;;5093892;28;20793;-77
2022/07/03 09:37:47;;;;;;;2.45;0.90;;;23.80;99.90;;;;;;5128015;27;20421;-77
2022/07/03 09:40:12;;;;;;;3.33;1.00;;;23.70;99.90;;;;;;5077761;28;20475;-76
2022/07/03 09:42:38;;;;;;;2.37;1.10;;;24.20;99.90;;;;;;5110966;28;20393;-76
2022/07/03 09:45:04;;;;;;;1.88;1.00;;;24.30;99.90;;;;;;5110476;28;20401;-76
2022/07/03 09:47:30;;;;;;;4.63;1.30;;;23.70;99.90;;;;;;5110495;28;20954;-77
2022/07/03 09:50:02;;;;;;;2.88;1.38;;;24.10;99.90;;;;;;5093693;28;20488;-76
2022/07/03 09:52:36;;;;;;;2.25;1.10;;;24.00;99.90;;;;;;5093715;28;20437;-76
2022/07/03 09:55:12;;;;;;;5.23;1.00;;;24.00;99.90;;;;;;5127733;27;20449;-77
2022/07/03 09:57:41;;;;;;;3.33;1.10;;;24.30;99.90;;;;;;5127548;27;20974;-76
2022/07/03 10:00:23;;;;;;;2.55;1.00;;;24.60;99.90;;;;;;5127427;27;20405;-76
2022/07/03 10:02:57;;;;;;;3.27;1.13;;;24.60;99.90;;;;;;5093747;28;20394;-77
2022/07/03 10:05:26;;;;;;;2.20;1.17;;;25.20;99.90;;;;;;5127608;27;20731;-76
2022/07/03 10:08:00;;;;;;;3.38;1.10;;;25.20;99.90;;;;;;5110324;28;20398;-76
2022/07/03 10:10:28;;;;;;;3.53;1.17;;;25.40;99.90;;;;;;5093419;28;20440;-76
2022/07/03 10:12:55;;;;;;;2.05;1.00;;;25.70;99.90;;;;;;5093135;28;20930;-76
2022/07/03 10:15:22;;;;;;;1.88;1.00;;;25.60;99.90;;;;;;5092939;28;20430;-76
2022/07/03 10:17:51;;;;;;;2.20;1.05;;;25.70;99.90;;;;;;5093207;28;20426;-76
2022/07/03 10:20:23;;;;;;;2.17;1.00;;;25.50;99.90;;;;;;5075994;28;20520;-77
2022/07/03 10:22:49;;;;;;;4.10;1.25;;;25.40;99.90;;;;;;5127066;27;20405;-76
2022/07/03 10:25:17;;;;;;;4.15;1.10;;;25.70;99.90;;;;;;5076268;28;20819;-77
2022/07/03 10:27:51;;;;;;;2.83;1.30;;;25.70;99.90;;;;;;5092727;28;20467;-77
2022/07/03 10:30:22;;;;;;;3.58;1.10;;;26.20;99.90;;;;;;5126794;27;20405;-77
2022/07/03 10:32:50;;;;;;;3.10;1.02;;;26.30;99.90;;;;;;5126776;27;20496;-76
2022/07/03 10:35:27;;;;;;;2.35;1.05;;;26.50;99.90;;;;;;5091406;28;20426;-77
2022/07/03 10:38:02;;;;;;;2.20;1.02;;;26.80;99.90;;;;;;5126672;27;20534;-77
2022/07/03 10:46:31;;;;;;;3.22;1.00;;;26.50;99.90;;;;;;5126507;27;20406;-77
2022/07/03 10:49:13;;;;;;;2.58;1.20;;;26.40;99.90;;;;;;5109341;28;20394;-78
2022/07/03 10:51:45;;;;;;;3.70;1.40;;;26.50;99.90;;;;;;5092269;28;20413;-77
2022/07/03 10:54:17;;;;;;;4.43;1.30;;;26.50;99.90;;;;;;5126553;27;20413;-77
2022/07/03 10:56:58;;;;;;;4.63;1.30;;;26.40;99.90;;;;;;5092168;28;20886;-77
2022/07/03 10:59:36;;;;;;;3.55;1.30;;;26.40;99.90;;;;;;5126622;27;20402;-77
2022/07/03 11:02:21;;;;;;;5.72;1.50;;;26.60;99.90;;;;;;5126235;27;20415;-77
2022/07/03 11:05:11;;;;;;;4.83;1.47;;;26.50;99.90;;;;;;5126447;27;20414;-77
2022/07/03 11:07:53;;;;;;;4.47;1.35;;;26.10;99.90;;;;;;5118414;27;20472;-76
2022/07/03 11:10:18;;;;;;;3.97;1.55;;;25.40;99.90;;;;;;5126111;27;20905;-75
2022/07/03 11:12:56;;;;;;;4.82;1.50;;;25.10;99.90;;;;;;5126304;27;20426;-76
2022/07/03 11:15:29;;;;;;;6.10;1.80;;;25.20;99.90;;;;;;5125696;27;20940;-76
2022/07/03 11:18:13;;;;;;;4.95;1.70;;;25.20;99.90;;;;;;5109061;28;20890;-75
2022/07/03 11:20:42;;;;;;;4.90;1.48;;;25.10;99.90;;;;;;5126160;27;20429;-76
2022/07/03 11:23:13;;;;;;;4.25;1.60;;;25.10;99.90;;;;;;5125933;27;20402;-76
2022/07/03 11:25:43;;;;;;;6.95;1.90;;;25.00;99.90;;;;;;5126156;27;20440;-76
2022/07/03 11:28:50;;;;;;;4.65;1.67;;;25.00;99.90;;;;;;5074860;28;20406;-76
2022/07/03 11:31:17;;;;;;;6.78;1.70;;;25.10;99.90;;;;;;5108670;28;20482;-76
2022/07/03 11:33:44;;;;;;;6.35;1.58;;;25.00;99.90;;;;;;5125506;27;20459;-77
2022/07/03 11:36:11;;;;;;;4.00;1.30;;;24.90;99.90;;;;;;5125501;27;20505;-76
2022/07/03 11:38:37;;;;;;;5.07;1.60;;;24.80;99.90;;;;;;5125491;27;20398;-78
2022/07/03 11:41:07;;;;;;;4.50;1.60;;;25.00;99.90;;;;;;5125505;27;20429;-77
2022/07/03 11:43:36;;;;;;;6.30;1.65;;;24.80;99.90;;;;;;5091326;28;20885;-76
2022/07/03 11:46:03;;;;;;;4.32;1.60;;;25.10;99.90;;;;;;5108658;28;20394;-76
2022/07/03 11:48:30;;;;;;;4.10;1.75;;;25.00;99.90;;;;;;5125362;27;20410;-76
2022/07/03 11:51:04;;;;;;;5.53;1.60;;;25.10;99.90;;;;;;5074543;28;20401;-77
2022/07/03 11:53:34;;;;;;;5.82;1.35;;;24.70;99.90;;;;;;5125563;27;20402;-76
2022/07/03 11:56:10;;;;;;;3.72;1.50;;;24.60;99.90;;;;;;5091022;28;20418;-76
2022/07/03 11:58:50;;;;;;;5.45;1.73;;;24.40;99.90;;;;;;5125178;27;20405;-76
2022/07/03 12:01:22;;;;;;;2.72;1.10;;;24.60;99.90;;;;;;5091073;28;20455;-77
2022/07/03 12:03:49;;;;;;;4.13;1.40;;;24.80;99.90;;;;;;5125119;27;20527;-77
2022/07/03 12:06:16;;;;;;;4.82;1.50;;;25.00;99.90;;;;;;5090903;28;20405;-77
2022/07/03 12:08:45;;;;;;;5.82;1.60;;;25.10;99.90;;;;;;5090913;28;20468;-77
2022/07/03 12:11:13;;;;;;;3.88;1.25;;;25.20;99.90;;;;;;5125375;27;20397;-77
2022/07/03 12:13:39;;;;;;;5.50;1.60;;;25.10;99.90;;;;;;5125267;27;20905;-76
2022/07/03 12:16:15;;;;;;;6.07;1.60;;;24.80;99.90;;;;;;5124948;27;20491;-77
2022/07/03 12:18:52;;;;;;;3.80;1.67;;;24.40;99.90;;;;;;5091020;28;20402;-76
2022/07/03 12:21:19;;;;;;;5.22;2.00;;;24.20;99.90;;;;;;5107648;28;20394;-76
2022/07/03 12:23:51;;;;;;;6.22;1.58;;;24.30;99.90;;;;;;5090742;28;20402;-77
2022/07/03 12:26:34;;;;;;;5.13;1.77;;;24.40;99.90;;;;;;5073841;28;20402;-77
2022/07/03 12:29:13;;;;;;;6.20;2.00;;;25.00;99.90;;;;;;5090609;28;20406;-78
2022/07/03 12:31:40;;;;;;;5.25;1.50;;;25.00;99.90;;;;;;5090558;28;20870;-76
2022/07/03 12:34:06;;;;;;;4.28;1.73;;;25.10;99.90;;;;;;5057076;28;20408;-76
2022/07/03 12:36:32;;;;;;;4.27;1.43;;;25.50;99.90;;;;;;5107391;28;20461;-77
2022/07/03 12:38:59;;;;;;;4.45;1.33;;;24.90;99.90;;;;;;5124965;27;20515;-77
2022/07/03 12:41:26;;;;;;;5.30;1.60;;;24.70;99.90;;;;;;5090329;28;20398;-76
2022/07/03 12:43:52;;;;;;;3.97;1.23;;;24.70;99.90;;;;;;5090351;28;20408;-77
2022/07/03 12:46:19;;;;;;;4.40;1.40;;;24.70;99.90;;;;;;5124748;27;20421;-77
2022/07/03 12:48:56;;;;;;;3.28;1.30;;;24.90;99.90;;;;;;5124389;27;20398;-76
2022/07/03 12:51:40;;;;;;;3.63;1.20;;;24.80;99.90;;;;;;5107568;28;20433;-76
2022/07/03 12:54:07;;;;;;;6.50;1.30;;;24.80;99.90;;;;;;5124355;27;20429;-76
2022/07/03 12:56:32;;;;;;;4.18;1.40;;;24.50;99.90;;;;;;5090150;28;20428;-76
2022/07/03 12:59:16;;;;;;;4.17;1.40;;;24.30;99.90;;;;;;5089809;28;20397;-76
2022/07/03 13:01:43;;;;;;;4.25;1.30;;;24.30;99.90;;;;;;5124425;28;20398;-77
2022/07/03 13:04:14;;;;;;;2.92;1.25;;;24.30;99.90;;;;;;5124382;28;20390;-77
2022/07/03 13:06:42;;;;;;;3.33;1.40;;;24.20;99.90;;;;;;5107102;28;21121;-77
2022/07/03 13:09:08;;;;;;;3.72;1.35;;;24.30;99.90;;;;;;5124513;28;20436;-77
2022/07/03 13:11:39;;;;;;;3.28;1.30;;;24.50;99.90;;;;;;5124528;28;20413;-76
2022/07/03 13:14:12;;;;;;;3.47;1.20;;;24.60;99.90;;;;;;5090026;28;20414;-76
2022/07/03 13:16:48;;;;;;;2.42;1.20;;;24.30;99.90;;;;;;5124127;28;20505;-76
2022/07/03 13:19:21;;;;;;;3.13;1.30;;;24.30;99.90;;;;;;5124387;28;20742;-75
2022/07/03 13:21:48;;;;;;;3.50;1.40;;;24.00;99.90;;;;;;5107110;28;20438;-75
2022/07/03 13:24:15;;;;;;;3.67;1.23;;;23.70;99.90;;;;;;5124165;28;20397;-76
2022/07/03 13:26:42;;;;;;;7.15;1.35;;;23.50;99.90;;;;;;5073148;28;20410;-76